x

Columbia River Bar - 20nm West Of Columbia River Mouth (46029) Wave Buoy

1:50pm - Wed 1st Apr 2015 All times are PDT. -7 hours from GMT.

  • Sig Wave height 7.9ft
  • Swell Direction
  • Peak Period 11s
  • Average Period 8s
  • Wind
  • Sea Temp 54°f
  • Air Temp 48°f
  • Sea Pressure 1026.8mb
  • Columbia River Bar - 20nm West Of Columbia River Mouth
  • Columbia River Bar - 20nm West Of Columbia River Mouth

More Historic Weather Station data

Upgrade to MSW Pro to gain access to the past 30 days of data for over 8000 Wavebouys and Weather Stations around the globe.

Join Pro

Comparision Forecast

View Surf forecast
   
Wed 04/01 1:50pm 8ft 11s 8s  -  2 mph 1026.8mb 54f 48f
12:50pm 8ft 13s 9s 4 9 mph 1027mb 54f 46f
11:50am 8ft 13s 8s 7 9 mph 1026.8mb 54f 48f
10:50am 8.5ft 13s 8s 4 7 mph 1026.8mb 53f 47f
9:50am 8ft 13s 8s 13 18 mph 1026.3mb 54f 50f
8:50am 9ft 13s 8s 11 13 mph 1025.8mb 54f 51f
7:50am 9ft 14s 8s 9 11 mph 1025.7mb 54f 51f
6:50am 9.5ft 14s 8s 9 11 mph 1025.6mb 54f 51f
5:50am 9ft 14s 8s 11 13 mph 1025.3mb 54f 51f
4:50am 8ft 14s 8s 13 16 mph 1025.3mb 54f 51f
3:50am 9ft 13s 8s 11 16 mph 1025.1mb 54f 51f
2:50am 8.5ft 13s 8s 11 13 mph 1025.1mb 54f 51f
1:50am 8ft 13s 8s 11 13 mph 1025mb 54f 51f
12:50am 8ft 14s 7s 9 11 mph 1024.8mb 54f 51f
Tue 03/31 11:50pm 8ft 11s 8s 11 13 mph 1024.5mb 54f 51f
10:50pm 8ft 11s 8s 13 18 mph 1024.1mb 54f 51f
9:50pm 8ft 15s 7s 11 13 mph 1023.9mb 54f 51f
8:50pm 8ft 12s 8s 13 18 mph 1023.5mb 54f 52f
7:50pm 7.5ft 14s 8s 13 18 mph 1022.8mb 54f 51f
6:50pm 8.5ft 15s 8s 16 20 mph 1022.8mb 54f 52f
5:50pm 8ft 11s 7s 16 18 mph 1022.7mb 54f 51f
4:50pm 9ft 12s 8s 16 20 mph 1022.5mb 54f 51f
3:50pm 10ft 15s 8s 11 13 mph 1022.6mb 54f 50f
2:50pm 10ft 12s 8s 16 18 mph 1022mb 54f 51f
1:50pm 10ft 12s 8s 13 16 mph 1021.6mb 54f 51f
12:50pm 10.5ft 11s 8s 7 11 mph 1021.4mb 54f 49f
11:50am 9ft 11s 8s 9 11 mph 1020.6mb 54f 50f
10:50am 9ft 12s 8s 13 16 mph 1020.1mb 54f 49f
9:50am 9ft 12s 8s 9 11 mph 1019.1mb 54f 51f
8:50am 10ft 11s 8s 7 11 mph 1018.6mb 54f 50f
7:50am 10ft 11s 8s 20 27 mph 1017.9mb 54f 50f
6:50am 9ft 11s 8s 13 18 mph 1017.6mb 54f 51f
5:50am 9ft 12s 7s 7 16 mph 1017.3mb 54f 49f
4:50am 9ft 13s 8s 13 18 mph 1016.7mb 54f 51f
3:50am 9.5ft 12s 8s 16 18 mph 1016.3mb 54f 51f
2:50am 9ft 13s 7s 13 18 mph 1015.9mb 54f 51f
1:50am 10ft 13s 7s 16 20 mph 1015.5mb 54f 50f
12:50am 10ft 13s 7s 18 20 mph 1014.5mb 54f 50f
Mon 03/30 11:50pm 10ft 11s 7s 18 22 mph 1013.7mb 54f 49f
10:50pm 10ft 12s 7s 22 29 mph 1012.5mb 54f 50f
9:50pm 11ft 13s 7s 20 22 mph 1011mb 54f 54f
8:50pm 11ft 12s 7s 27 34 mph 1010.8mb 54f 54f
7:50pm 10.5ft 13s 7s 25 29 mph 1011.3mb 54f 54f
6:50pm 10ft 12s 7s 22 27 mph 1012.3mb 54f 54f
5:50pm 9.5ft 12s 7s 20 25 mph 1013mb 54f 54f
4:50pm 9.5ft 12s 7s 20 22 mph 1013.8mb 54f 54f
3:50pm 9ft 13s 7s 18 22 mph 1014.2mb 54f 54f
2:50pm 9ft 11s 7s 18 25 mph 1015.2mb 54f 54f
1:50pm 8ft 12s 7s 18 22 mph 1016.1mb 54f 54f
12:50pm 9ft 11s 8s 16 20 mph 1016.8mb 54f 54f
11:50am 10ft 13s 8s 16 20 mph 1017.7mb 54f 54f
10:50am 9ft 13s 8s 18 20 mph 1017.6mb 54f 54f
9:50am 9.5ft 13s 8s 18 20 mph 1018mb 54f 54f
8:50am 11.5ft 13s 9s 16 18 mph 1018.5mb 54f 53f
7:50am 10ft 13s 8s 16 18 mph 1018.5mb 54f 53f
6:50am 9.5ft 12s 8s 16 18 mph 1018.6mb 54f 53f
5:50am 10ft 13s 9s 16 18 mph 1018.8mb 54f 53f
4:50am 10.5ft 12s 9s 16 18 mph 1019.2mb 54f 54f
3:50am 10ft 11s 9s 16 18 mph 1019.7mb 54f 54f
2:50am 10ft 12s 9s 16 18 mph 1020.1mb 54f 54f
1:50am 11ft 12s 9s 11 13 mph 1020.3mb 54f 54f
12:50am 10ft 11s 9s 11 13 mph 1020.6mb 54f 54f
Sun 03/29 11:50pm 10ft 12s 9s 11 13 mph 1020.9mb 54f 54f
10:50pm 10ft 12s 8s 13 16 mph 1021.3mb 54f 54f
9:50pm 9.5ft 12s 8s 13
mph
1021.3mb 54f 54f
8:50pm 10ft 12s 8s 11 13 mph 1021.5mb 54f 54f
7:50pm 10ft 11s 8s 11 13 mph 1021.6mb 54f 54f
6:50pm 11ft 11s 9s 11 16 mph 1021.9mb 54f 54f
5:50pm 10.5ft 12s 8s 13 16 mph 1022.5mb 54f 54f
4:50pm 10.5ft 12s 8s 16 20 mph 1022.9mb 54f 54f
3:50pm 11ft 11s 8s 16 20 mph 1023.2mb 54f 54f
2:50pm 10ft 12s 8s 20 22 mph 1023.6mb 54f 54f
1:50pm 10ft 12s 8s 20 25 mph 1024.1mb 53f 53f
12:50pm 9ft 12s 7s 20 25 mph 1024.2mb 53f 53f
11:50am 9ft 11s 7s 20 25 mph 1024.3mb 53f 53f
10:50am 10ft 12s 8s 20 25 mph 1024.5mb 53f 53f
9:50am 10ft 10s 7s 20 22 mph 1024.3mb 53f 53f
8:50am 9ft 11s 7s 18 22 mph 1024.3mb 53f 53f
7:50am 9.5ft 11s 8s 18 20 mph 1024.4mb 53f 53f
6:50am 9ft 11s 8s 18 20 mph 1024.2mb 53f 53f
5:50am 8.5ft 11s 7s 18 20 mph 1024.3mb 54f 53f
4:50am 8ft 11s 7s 18 20 mph 1024.8mb 54f 53f
3:50am 7ft 10s 6s 18 20 mph 1024.7mb 54f 53f
2:50am 6.5ft 11s 6s 16 18 mph 1025.2mb 54f 53f
1:50am 7ft 10s 7s 16 18 mph 1025.7mb 54f 53f
12:50am 6.5ft 8s 6s 13 16 mph 1026.5mb 53f 53f
Sat 03/28 11:50pm 7ft 11s 7s 13 16 mph 1026.7mb 53f 53f
10:50pm 7ft 11s 7s 13 16 mph 1026.8mb 53f 53f